sensor_id;sensor_type;location;lat;lon;timestamp;P1;durP1;ratioP1;P2;durP2;ratioP2
64653;SDS011;51065;48.884;12.598;2024-01-07T00:01:31;19.88;;;7.32;;
64653;SDS011;51065;48.884;12.598;2024-01-07T00:03:57;19.42;;;7.93;;
64653;SDS011;51065;48.884;12.598;2024-01-07T00:06:22;17.25;;;7.35;;
64653;SDS011;51065;48.884;12.598;2024-01-07T00:08:48;18.63;;;8.35;;
64653;SDS011;51065;48.884;12.598;2024-01-07T00:11:14;17.92;;;7.38;;
64653;SDS011;51065;48.884;12.598;2024-01-07T00:13:39;17.08;;;6.65;;
64653;SDS011;51065;48.884;12.598;2024-01-07T00:16:05;16.23;;;6.75;;
64653;SDS011;51065;48.884;12.598;2024-01-07T00:18:31;17.50;;;6.95;;
64653;SDS011;51065;48.884;12.598;2024-01-07T00:20:56;16.85;;;6.82;;
64653;SDS011;51065;48.884;12.598;2024-01-07T00:23:22;17.30;;;6.65;;
64653;SDS011;51065;48.884;12.598;2024-01-07T00:25:48;18.08;;;7.10;;
64653;SDS011;51065;48.884;12.598;2024-01-07T00:28:13;18.40;;;7.55;;
64653;SDS011;51065;48.884;12.598;2024-01-07T00:30:39;17.58;;;7.03;;
64653;SDS011;51065;48.884;12.598;2024-01-07T00:33:04;15.85;;;6.63;;
64653;SDS011;51065;48.884;12.598;2024-01-07T00:35:30;16.10;;;6.28;;
64653;SDS011;51065;48.884;12.598;2024-01-07T00:37:56;15.45;;;6.30;;
64653;SDS011;51065;48.884;12.598;2024-01-07T00:40:22;16.48;;;6.43;;
64653;SDS011;51065;48.884;12.598;2024-01-07T00:42:48;16.85;;;7.30;;
64653;SDS011;51065;48.884;12.598;2024-01-07T00:45:13;17.77;;;7.18;;
64653;SDS011;51065;48.884;12.598;2024-01-07T00:47:39;15.48;;;6.07;;
64653;SDS011;51065;48.884;12.598;2024-01-07T00:50:05;16.83;;;6.18;;
64653;SDS011;51065;48.884;12.598;2024-01-07T00:52:30;17.77;;;6.90;;
64653;SDS011;51065;48.884;12.598;2024-01-07T00:54:56;13.70;;;5.47;;
64653;SDS011;51065;48.884;12.598;2024-01-07T00:57:22;17.88;;;5.70;;
64653;SDS011;51065;48.884;12.598;2024-01-07T00:59:47;15.50;;;6.40;;
64653;SDS011;51065;48.884;12.598;2024-01-07T01:02:13;15.10;;;6.03;;
64653;SDS011;51065;48.884;12.598;2024-01-07T01:04:39;15.23;;;6.55;;
64653;SDS011;51065;48.884;12.598;2024-01-07T01:07:08;15.38;;;5.55;;
64653;SDS011;51065;48.884;12.598;2024-01-07T01:09:33;15.63;;;5.40;;
64653;SDS011;51065;48.884;12.598;2024-01-07T01:11:59;14.15;;;5.80;;
64653;SDS011;51065;48.884;12.598;2024-01-07T01:14:24;13.57;;;5.07;;
64653;SDS011;51065;48.884;12.598;2024-01-07T01:16:50;13.80;;;5.60;;
64653;SDS011;51065;48.884;12.598;2024-01-07T01:19:16;14.70;;;5.82;;
64653;SDS011;51065;48.884;12.598;2024-01-07T01:21:42;17.08;;;5.85;;
64653;SDS011;51065;48.884;12.598;2024-01-07T01:24:08;14.52;;;5.35;;
64653;SDS011;51065;48.884;12.598;2024-01-07T01:26:34;15.68;;;6.05;;
64653;SDS011;51065;48.884;12.598;2024-01-07T01:28:59;13.65;;;5.78;;
64653;SDS011;51065;48.884;12.598;2024-01-07T01:31:25;16.83;;;6.20;;
64653;SDS011;51065;48.884;12.598;2024-01-07T01:33:50;14.40;;;5.72;;
64653;SDS011;51065;48.884;12.598;2024-01-07T01:36:16;12.98;;;6.03;;
64653;SDS011;51065;48.884;12.598;2024-01-07T01:38:41;14.93;;;6.55;;
64653;SDS011;51065;48.884;12.598;2024-01-07T01:41:07;15.93;;;6.05;;
64653;SDS011;51065;48.884;12.598;2024-01-07T01:43:33;13.45;;;6.00;;
64653;SDS011;51065;48.884;12.598;2024-01-07T01:45:58;12.82;;;5.15;;
64653;SDS011;51065;48.884;12.598;2024-01-07T01:48:26;15.05;;;5.70;;
64653;SDS011;51065;48.884;12.598;2024-01-07T01:50:53;13.15;;;5.93;;
64653;SDS011;51065;48.884;12.598;2024-01-07T01:53:22;14.95;;;5.88;;
64653;SDS011;51065;48.884;12.598;2024-01-07T01:55:50;13.77;;;5.68;;
64653;SDS011;51065;48.884;12.598;2024-01-07T01:58:15;14.68;;;5.50;;
64653;SDS011;51065;48.884;12.598;2024-01-07T02:00:44;14.35;;;5.85;;
64653;SDS011;51065;48.884;12.598;2024-01-07T02:03:09;13.88;;;4.80;;
64653;SDS011;51065;48.884;12.598;2024-01-07T02:05:35;16.15;;;6.03;;
64653;SDS011;51065;48.884;12.598;2024-01-07T02:08:01;12.68;;;5.03;;
64653;SDS011;51065;48.884;12.598;2024-01-07T02:10:27;14.65;;;5.45;;
64653;SDS011;51065;48.884;12.598;2024-01-07T02:12:59;15.38;;;6.47;;
64653;SDS011;51065;48.884;12.598;2024-01-07T02:15:25;12.98;;;5.22;;
64653;SDS011;51065;48.884;12.598;2024-01-07T02:17:50;12.10;;;4.95;;
64653;SDS011;51065;48.884;12.598;2024-01-07T02:20:16;13.02;;;5.07;;
64653;SDS011;51065;48.884;12.598;2024-01-07T02:22:41;12.32;;;5.15;;
64653;SDS011;51065;48.884;12.598;2024-01-07T02:25:07;15.48;;;5.30;;
64653;SDS011;51065;48.884;12.598;2024-01-07T02:27:33;15.00;;;5.40;;
64653;SDS011;51065;48.884;12.598;2024-01-07T02:29:59;13.00;;;5.63;;
64653;SDS011;51065;48.884;12.598;2024-01-07T02:32:25;12.20;;;5.13;;
64653;SDS011;51065;48.884;12.598;2024-01-07T02:34:51;13.40;;;4.85;;
64653;SDS011;51065;48.884;12.598;2024-01-07T02:37:17;12.38;;;5.15;;
64653;SDS011;51065;48.884;12.598;2024-01-07T02:39:42;13.45;;;4.97;;
64653;SDS011;51065;48.884;12.598;2024-01-07T02:42:09;13.13;;;5.13;;
64653;SDS011;51065;48.884;12.598;2024-01-07T02:44:35;13.00;;;4.80;;
64653;SDS011;51065;48.884;12.598;2024-01-07T02:47:00;11.93;;;5.03;;
64653;SDS011;51065;48.884;12.598;2024-01-07T02:49:26;10.82;;;4.38;;
64653;SDS011;51065;48.884;12.598;2024-01-07T02:51:52;12.45;;;4.40;;
64653;SDS011;51065;48.884;12.598;2024-01-07T02:54:18;10.70;;;4.63;;
64653;SDS011;51065;48.884;12.598;2024-01-07T02:56:43;11.55;;;4.50;;
64653;SDS011;51065;48.884;12.598;2024-01-07T02:59:09;11.65;;;4.80;;
64653;SDS011;51065;48.884;12.598;2024-01-07T03:01:35;10.18;;;4.28;;
64653;SDS011;51065;48.884;12.598;2024-01-07T03:04:05;11.73;;;4.57;;
64653;SDS011;51065;48.884;12.598;2024-01-07T03:06:35;12.02;;;4.13;;
64653;SDS011;51065;48.884;12.598;2024-01-07T03:09:01;14.27;;;4.85;;
64653;SDS011;51065;48.884;12.598;2024-01-07T03:11:26;11.68;;;4.68;;
64653;SDS011;51065;48.884;12.598;2024-01-07T03:13:52;13.18;;;4.95;;
64653;SDS011;51065;48.884;12.598;2024-01-07T03:16:24;10.68;;;4.28;;
64653;SDS011;51065;48.884;12.598;2024-01-07T03:18:51;10.43;;;4.43;;
64653;SDS011;51065;48.884;12.598;2024-01-07T03:21:18;10.02;;;3.83;;
64653;SDS011;51065;48.884;12.598;2024-01-07T03:23:48;12.00;;;4.18;;
64653;SDS011;51065;48.884;12.598;2024-01-07T03:26:15;10.40;;;4.35;;
64653;SDS011;51065;48.884;12.598;2024-01-07T03:28:41;10.07;;;3.97;;
64653;SDS011;51065;48.884;12.598;2024-01-07T03:31:11;11.15;;;3.90;;
64653;SDS011;51065;48.884;12.598;2024-01-07T03:36:13;10.10;;;4.13;;
64653;SDS011;51065;48.884;12.598;2024-01-07T03:38:39;8.52;;;3.35;;
64653;SDS011;51065;48.884;12.598;2024-01-07T03:41:06;9.68;;;3.45;;
64653;SDS011;51065;48.884;12.598;2024-01-07T03:43:32;11.50;;;4.40;;
64653;SDS011;51065;48.884;12.598;2024-01-07T03:45:58;10.63;;;4.20;;
64653;SDS011;51065;48.884;12.598;2024-01-07T03:48:24;9.40;;;3.92;;
64653;SDS011;51065;48.884;12.598;2024-01-07T03:50:50;12.25;;;4.50;;
64653;SDS011;51065;48.884;12.598;2024-01-07T03:53:16;10.52;;;4.18;;
64653;SDS011;51065;48.884;12.598;2024-01-07T03:55:42;12.45;;;5.25;;
64653;SDS011;51065;48.884;12.598;2024-01-07T03:58:08;11.63;;;4.85;;
64653;SDS011;51065;48.884;12.598;2024-01-07T04:00:34;14.00;;;5.03;;
64653;SDS011;51065;48.884;12.598;2024-01-07T04:03:02;10.65;;;4.18;;
64653;SDS011;51065;48.884;12.598;2024-01-07T04:05:28;10.82;;;4.43;;
64653;SDS011;51065;48.884;12.598;2024-01-07T04:07:54;7.93;;;3.40;;
64653;SDS011;51065;48.884;12.598;2024-01-07T04:10:20;13.18;;;5.75;;
64653;SDS011;51065;48.884;12.598;2024-01-07T04:12:45;16.15;;;5.75;;
64653;SDS011;51065;48.884;12.598;2024-01-07T04:15:11;10.57;;;4.22;;
64653;SDS011;51065;48.884;12.598;2024-01-07T04:17:37;11.05;;;4.43;;
64653;SDS011;51065;48.884;12.598;2024-01-07T04:20:03;13.13;;;5.15;;
64653;SDS011;51065;48.884;12.598;2024-01-07T04:22:30;10.77;;;4.63;;
64653;SDS011;51065;48.884;12.598;2024-01-07T04:24:56;10.95;;;4.82;;
64653;SDS011;51065;48.884;12.598;2024-01-07T04:27:21;11.50;;;4.85;;
64653;SDS011;51065;48.884;12.598;2024-01-07T04:29:47;11.90;;;4.10;;
64653;SDS011;51065;48.884;12.598;2024-01-07T04:32:12;9.82;;;3.80;;
64653;SDS011;51065;48.884;12.598;2024-01-07T04:34:38;12.68;;;4.45;;
64653;SDS011;51065;48.884;12.598;2024-01-07T04:37:03;7.82;;;3.38;;
64653;SDS011;51065;48.884;12.598;2024-01-07T04:39:29;13.07;;;4.47;;
64653;SDS011;51065;48.884;12.598;2024-01-07T04:41:54;7.25;;;3.63;;
64653;SDS011;51065;48.884;12.598;2024-01-07T04:44:20;9.93;;;3.67;;
64653;SDS011;51065;48.884;12.598;2024-01-07T04:46:47;12.68;;;4.53;;
64653;SDS011;51065;48.884;12.598;2024-01-07T04:49:14;8.65;;;4.03;;
64653;SDS011;51065;48.884;12.598;2024-01-07T04:51:39;9.73;;;3.60;;
64653;SDS011;51065;48.884;12.598;2024-01-07T04:54:05;7.32;;;3.38;;
64653;SDS011;51065;48.884;12.598;2024-01-07T04:56:33;11.43;;;3.90;;
64653;SDS011;51065;48.884;12.598;2024-01-07T04:58:59;11.82;;;4.63;;
64653;SDS011;51065;48.884;12.598;2024-01-07T05:01:24;12.65;;;4.53;;
64653;SDS011;51065;48.884;12.598;2024-01-07T05:03:50;9.60;;;3.53;;
64653;SDS011;51065;48.884;12.598;2024-01-07T05:06:15;8.88;;;3.45;;
64653;SDS011;51065;48.884;12.598;2024-01-07T05:08:41;10.18;;;4.13;;
64653;SDS011;51065;48.884;12.598;2024-01-07T05:11:07;9.30;;;3.75;;
64653;SDS011;51065;48.884;12.598;2024-01-07T05:13:33;11.82;;;4.97;;
64653;SDS011;51065;48.884;12.598;2024-01-07T05:16:00;8.80;;;3.47;;
64653;SDS011;51065;48.884;12.598;2024-01-07T05:18:26;11.02;;;3.80;;
64653;SDS011;51065;48.884;12.598;2024-01-07T05:20:52;12.98;;;4.25;;
64653;SDS011;51065;48.884;12.598;2024-01-07T05:23:18;9.35;;;3.42;;
64653;SDS011;51065;48.884;12.598;2024-01-07T05:25:44;10.27;;;3.95;;
64653;SDS011;51065;48.884;12.598;2024-01-07T05:28:10;10.75;;;3.30;;
64653;SDS011;51065;48.884;12.598;2024-01-07T05:30:36;9.52;;;4.20;;
64653;SDS011;51065;48.884;12.598;2024-01-07T05:33:03;9.07;;;3.90;;
64653;SDS011;51065;48.884;12.598;2024-01-07T05:35:28;8.93;;;3.33;;
64653;SDS011;51065;48.884;12.598;2024-01-07T05:37:54;11.77;;;4.00;;
64653;SDS011;51065;48.884;12.598;2024-01-07T05:40:20;7.63;;;3.47;;
64653;SDS011;51065;48.884;12.598;2024-01-07T05:42:46;9.23;;;4.03;;
64653;SDS011;51065;48.884;12.598;2024-01-07T05:45:11;12.13;;;4.38;;
64653;SDS011;51065;48.884;12.598;2024-01-07T05:47:37;12.90;;;4.63;;
64653;SDS011;51065;48.884;12.598;2024-01-07T05:50:02;9.27;;;3.85;;
64653;SDS011;51065;48.884;12.598;2024-01-07T05:52:29;11.70;;;3.97;;
64653;SDS011;51065;48.884;12.598;2024-01-07T05:54:55;10.55;;;4.00;;
64653;SDS011;51065;48.884;12.598;2024-01-07T05:57:21;9.82;;;3.58;;
64653;SDS011;51065;48.884;12.598;2024-01-07T05:59:47;8.85;;;3.85;;
64653;SDS011;51065;48.884;12.598;2024-01-07T06:02:15;8.88;;;3.30;;
64653;SDS011;51065;48.884;12.598;2024-01-07T06:04:41;9.35;;;3.90;;
64653;SDS011;51065;48.884;12.598;2024-01-07T06:07:06;10.45;;;4.40;;
64653;SDS011;51065;48.884;12.598;2024-01-07T06:09:32;10.70;;;4.22;;
64653;SDS011;51065;48.884;12.598;2024-01-07T06:11:58;8.10;;;3.30;;
64653;SDS011;51065;48.884;12.598;2024-01-07T06:14:23;11.15;;;4.25;;
64653;SDS011;51065;48.884;12.598;2024-01-07T06:16:49;9.27;;;3.58;;
64653;SDS011;51065;48.884;12.598;2024-01-07T06:19:16;8.30;;;3.13;;
64653;SDS011;51065;48.884;12.598;2024-01-07T06:21:42;11.90;;;4.45;;
64653;SDS011;51065;48.884;12.598;2024-01-07T06:24:08;10.43;;;3.63;;
64653;SDS011;51065;48.884;12.598;2024-01-07T06:26:34;11.70;;;4.85;;
64653;SDS011;51065;48.884;12.598;2024-01-07T06:29:00;9.90;;;4.18;;
64653;SDS011;51065;48.884;12.598;2024-01-07T06:31:26;12.25;;;3.92;;
64653;SDS011;51065;48.884;12.598;2024-01-07T06:33:51;16.08;;;5.25;;
64653;SDS011;51065;48.884;12.598;2024-01-07T06:36:17;13.50;;;5.70;;
64653;SDS011;51065;48.884;12.598;2024-01-07T06:38:43;10.57;;;4.90;;
64653;SDS011;51065;48.884;12.598;2024-01-07T06:41:11;10.25;;;4.05;;
64653;SDS011;51065;48.884;12.598;2024-01-07T06:43:37;11.48;;;3.95;;
64653;SDS011;51065;48.884;12.598;2024-01-07T06:46:03;13.32;;;5.10;;
64653;SDS011;51065;48.884;12.598;2024-01-07T06:48:29;12.13;;;4.60;;
64653;SDS011;51065;48.884;12.598;2024-01-07T06:50:55;10.35;;;4.35;;
64653;SDS011;51065;48.884;12.598;2024-01-07T06:53:20;9.77;;;4.40;;
64653;SDS011;51065;48.884;12.598;2024-01-07T06:55:46;12.88;;;4.85;;
64653;SDS011;51065;48.884;12.598;2024-01-07T06:58:12;9.23;;;4.25;;
64653;SDS011;51065;48.884;12.598;2024-01-07T07:00:37;11.18;;;4.40;;
64653;SDS011;51065;48.884;12.598;2024-01-07T07:03:03;11.25;;;4.93;;
64653;SDS011;51065;48.884;12.598;2024-01-07T07:05:30;11.80;;;4.35;;
64653;SDS011;51065;48.884;12.598;2024-01-07T07:07:56;10.00;;;4.15;;
64653;SDS011;51065;48.884;12.598;2024-01-07T07:10:21;10.05;;;4.45;;
64653;SDS011;51065;48.884;12.598;2024-01-07T07:12:47;9.45;;;4.35;;
64653;SDS011;51065;48.884;12.598;2024-01-07T07:15:12;10.57;;;4.75;;
64653;SDS011;51065;48.884;12.598;2024-01-07T07:17:38;9.07;;;3.80;;
64653;SDS011;51065;48.884;12.598;2024-01-07T07:20:04;13.73;;;5.13;;
64653;SDS011;51065;48.884;12.598;2024-01-07T07:22:31;11.43;;;4.20;;
64653;SDS011;51065;48.884;12.598;2024-01-07T07:24:56;10.48;;;4.20;;
64653;SDS011;51065;48.884;12.598;2024-01-07T07:27:22;11.25;;;4.40;;
64653;SDS011;51065;48.884;12.598;2024-01-07T07:29:47;9.75;;;3.60;;
64653;SDS011;51065;48.884;12.598;2024-01-07T07:32:13;8.90;;;4.05;;
64653;SDS011;51065;48.884;12.598;2024-01-07T07:34:38;13.10;;;5.20;;
64653;SDS011;51065;48.884;12.598;2024-01-07T07:37:04;9.38;;;3.95;;
64653;SDS011;51065;48.884;12.598;2024-01-07T07:39:29;13.30;;;3.90;;
64653;SDS011;51065;48.884;12.598;2024-01-07T07:41:55;9.23;;;3.67;;
64653;SDS011;51065;48.884;12.598;2024-01-07T07:44:21;10.85;;;4.53;;
64653;SDS011;51065;48.884;12.598;2024-01-07T07:46:46;10.70;;;4.47;;
64653;SDS011;51065;48.884;12.598;2024-01-07T07:49:12;12.43;;;4.25;;
64653;SDS011;51065;48.884;12.598;2024-01-07T07:51:38;12.05;;;4.20;;
64653;SDS011;51065;48.884;12.598;2024-01-07T07:54:03;9.70;;;4.13;;
64653;SDS011;51065;48.884;12.598;2024-01-07T07:56:29;14.68;;;5.80;;
64653;SDS011;51065;48.884;12.598;2024-01-07T07:58:55;10.43;;;4.60;;
64653;SDS011;51065;48.884;12.598;2024-01-07T08:01:20;9.20;;;3.63;;
64653;SDS011;51065;48.884;12.598;2024-01-07T08:03:46;8.35;;;3.60;;
64653;SDS011;51065;48.884;12.598;2024-01-07T08:06:11;12.02;;;5.13;;
64653;SDS011;51065;48.884;12.598;2024-01-07T08:08:37;8.52;;;3.72;;
64653;SDS011;51065;48.884;12.598;2024-01-07T08:11:02;9.15;;;4.03;;
64653;SDS011;51065;48.884;12.598;2024-01-07T08:13:32;11.90;;;4.30;;
64653;SDS011;51065;48.884;12.598;2024-01-07T08:16:00;12.55;;;4.70;;
64653;SDS011;51065;48.884;12.598;2024-01-07T08:18:25;10.13;;;4.40;;
64653;SDS011;51065;48.884;12.598;2024-01-07T08:20:51;9.65;;;4.25;;
64653;SDS011;51065;48.884;12.598;2024-01-07T08:23:16;10.10;;;4.07;;
64653;SDS011;51065;48.884;12.598;2024-01-07T08:25:42;11.23;;;3.90;;
64653;SDS011;51065;48.884;12.598;2024-01-07T08:28:07;10.00;;;4.25;;
64653;SDS011;51065;48.884;12.598;2024-01-07T08:30:34;10.23;;;4.28;;
64653;SDS011;51065;48.884;12.598;2024-01-07T08:33:00;12.45;;;5.22;;
64653;SDS011;51065;48.884;12.598;2024-01-07T08:35:25;12.90;;;4.63;;
64653;SDS011;51065;48.884;12.598;2024-01-07T08:37:51;8.93;;;3.53;;
64653;SDS011;51065;48.884;12.598;2024-01-07T08:40:16;9.45;;;4.45;;
64653;SDS011;51065;48.884;12.598;2024-01-07T08:42:44;9.23;;;4.22;;
64653;SDS011;51065;48.884;12.598;2024-01-07T08:45:09;12.18;;;5.45;;
64653;SDS011;51065;48.884;12.598;2024-01-07T08:47:36;11.98;;;5.20;;
64653;SDS011;51065;48.884;12.598;2024-01-07T08:50:02;11.40;;;4.30;;
64653;SDS011;51065;48.884;12.598;2024-01-07T08:52:28;12.68;;;4.32;;
64653;SDS011;51065;48.884;12.598;2024-01-07T08:54:53;10.65;;;5.20;;
64653;SDS011;51065;48.884;12.598;2024-01-07T08:57:20;9.43;;;3.88;;
64653;SDS011;51065;48.884;12.598;2024-01-07T08:59:46;9.85;;;4.32;;
64653;SDS011;51065;48.884;12.598;2024-01-07T09:02:11;10.02;;;3.53;;
64653;SDS011;51065;48.884;12.598;2024-01-07T09:04:37;8.90;;;3.97;;
64653;SDS011;51065;48.884;12.598;2024-01-07T09:07:03;8.23;;;4.03;;
64653;SDS011;51065;48.884;12.598;2024-01-07T09:09:28;9.98;;;4.10;;
64653;SDS011;51065;48.884;12.598;2024-01-07T09:11:54;9.77;;;4.22;;
64653;SDS011;51065;48.884;12.598;2024-01-07T09:14:21;10.43;;;4.53;;
64653;SDS011;51065;48.884;12.598;2024-01-07T09:16:47;12.00;;;4.22;;
64653;SDS011;51065;48.884;12.598;2024-01-07T09:19:12;9.18;;;3.67;;
64653;SDS011;51065;48.884;12.598;2024-01-07T09:21:38;13.60;;;4.65;;
64653;SDS011;51065;48.884;12.598;2024-01-07T09:24:04;12.93;;;5.43;;
64653;SDS011;51065;48.884;12.598;2024-01-07T09:26:30;10.68;;;4.28;;
64653;SDS011;51065;48.884;12.598;2024-01-07T09:28:56;8.93;;;3.85;;
64653;SDS011;51065;48.884;12.598;2024-01-07T09:31:22;8.15;;;3.75;;
64653;SDS011;51065;48.884;12.598;2024-01-07T09:33:47;11.93;;;5.50;;
64653;SDS011;51065;48.884;12.598;2024-01-07T09:36:13;12.90;;;5.13;;
64653;SDS011;51065;48.884;12.598;2024-01-07T09:38:39;12.52;;;4.57;;
64653;SDS011;51065;48.884;12.598;2024-01-07T09:41:05;14.43;;;5.50;;
64653;SDS011;51065;48.884;12.598;2024-01-07T09:43:31;12.60;;;4.43;;
64653;SDS011;51065;48.884;12.598;2024-01-07T09:45:57;10.48;;;4.43;;
64653;SDS011;51065;48.884;12.598;2024-01-07T09:48:23;12.13;;;4.65;;
64653;SDS011;51065;48.884;12.598;2024-01-07T09:50:49;8.75;;;3.78;;
64653;SDS011;51065;48.884;12.598;2024-01-07T09:53:16;12.23;;;4.20;;
64653;SDS011;51065;48.884;12.598;2024-01-07T09:58:22;11.40;;;5.05;;
64653;SDS011;51065;48.884;12.598;2024-01-07T10:00:48;8.82;;;4.35;;
64653;SDS011;51065;48.884;12.598;2024-01-07T10:03:14;13.25;;;4.78;;
64653;SDS011;51065;48.884;12.598;2024-01-07T10:05:40;9.88;;;4.47;;
64653;SDS011;51065;48.884;12.598;2024-01-07T10:08:06;11.98;;;4.82;;
64653;SDS011;51065;48.884;12.598;2024-01-07T10:10:32;9.88;;;3.97;;
64653;SDS011;51065;48.884;12.598;2024-01-07T10:13:00;13.60;;;5.38;;
64653;SDS011;51065;48.884;12.598;2024-01-07T10:15:26;10.30;;;4.53;;
64653;SDS011;51065;48.884;12.598;2024-01-07T10:17:54;12.52;;;4.88;;
64653;SDS011;51065;48.884;12.598;2024-01-07T10:20:21;11.05;;;5.22;;
64653;SDS011;51065;48.884;12.598;2024-01-07T10:22:49;10.40;;;4.50;;
64653;SDS011;51065;48.884;12.598;2024-01-07T10:25:15;12.35;;;4.93;;
64653;SDS011;51065;48.884;12.598;2024-01-07T10:27:41;10.13;;;4.47;;
64653;SDS011;51065;48.884;12.598;2024-01-07T10:30:07;10.70;;;4.35;;
64653;SDS011;51065;48.884;12.598;2024-01-07T10:32:35;12.35;;;4.90;;
64653;SDS011;51065;48.884;12.598;2024-01-07T10:35:04;9.18;;;4.13;;
64653;SDS011;51065;48.884;12.598;2024-01-07T10:37:31;10.27;;;4.32;;
64653;SDS011;51065;48.884;12.598;2024-01-07T10:39:57;12.77;;;5.15;;
64653;SDS011;51065;48.884;12.598;2024-01-07T10:42:28;10.98;;;4.85;;
64653;SDS011;51065;48.884;12.598;2024-01-07T10:45:02;10.38;;;3.75;;
64653;SDS011;51065;48.884;12.598;2024-01-07T10:47:31;9.02;;;4.38;;
64653;SDS011;51065;48.884;12.598;2024-01-07T10:49:57;8.07;;;4.10;;
64653;SDS011;51065;48.884;12.598;2024-01-07T10:52:26;12.80;;;5.00;;
64653;SDS011;51065;48.884;12.598;2024-01-07T10:54:53;9.88;;;4.82;;
64653;SDS011;51065;48.884;12.598;2024-01-07T10:57:24;12.07;;;5.38;;
64653;SDS011;51065;48.884;12.598;2024-01-07T10:59:59;8.57;;;3.88;;
64653;SDS011;51065;48.884;12.598;2024-01-07T11:02:25;10.73;;;4.40;;
64653;SDS011;51065;48.884;12.598;2024-01-07T11:05:39;8.90;;;4.28;;
64653;SDS011;51065;48.884;12.598;2024-01-07T11:07:46;13.13;;;5.40;;
64653;SDS011;51065;48.884;12.598;2024-01-07T11:10:22;10.75;;;4.10;;
64653;SDS011;51065;48.884;12.598;2024-01-07T11:12:56;13.20;;;4.80;;
64653;SDS011;51065;48.884;12.598;2024-01-07T11:18:16;11.38;;;4.95;;
64653;SDS011;51065;48.884;12.598;2024-01-07T11:20:43;12.45;;;5.18;;
64653;SDS011;51065;48.884;12.598;2024-01-07T11:25:59;9.52;;;3.67;;
64653;SDS011;51065;48.884;12.598;2024-01-07T11:31:10;11.95;;;4.93;;
64653;SDS011;51065;48.884;12.598;2024-01-07T11:33:37;11.00;;;4.10;;
64653;SDS011;51065;48.884;12.598;2024-01-07T11:36:03;11.48;;;4.63;;
64653;SDS011;51065;48.884;12.598;2024-01-07T11:38:30;11.30;;;4.50;;
64653;SDS011;51065;48.884;12.598;2024-01-07T11:40:56;13.18;;;5.10;;
64653;SDS011;51065;48.884;12.598;2024-01-07T11:43:22;12.82;;;4.95;;
64653;SDS011;51065;48.884;12.598;2024-01-07T11:45:51;13.45;;;5.53;;
64653;SDS011;51065;48.884;12.598;2024-01-07T11:48:18;12.18;;;4.63;;
64653;SDS011;51065;48.884;12.598;2024-01-07T11:50:44;11.27;;;4.78;;
64653;SDS011;51065;48.884;12.598;2024-01-07T11:53:12;11.20;;;4.35;;
64653;SDS011;51065;48.884;12.598;2024-01-07T11:55:38;11.27;;;4.32;;
64653;SDS011;51065;48.884;12.598;2024-01-07T11:58:04;13.75;;;5.65;;
64653;SDS011;51065;48.884;12.598;2024-01-07T12:00:35;9.55;;;4.05;;
64653;SDS011;51065;48.884;12.598;2024-01-07T12:03:01;12.85;;;4.78;;
64653;SDS011;51065;48.884;12.598;2024-01-07T12:05:27;12.18;;;5.65;;
64653;SDS011;51065;48.884;12.598;2024-01-07T12:07:53;13.13;;;5.35;;
64653;SDS011;51065;48.884;12.598;2024-01-07T12:10:19;12.70;;;5.13;;
64653;SDS011;51065;48.884;12.598;2024-01-07T12:12:45;11.82;;;4.35;;
64653;SDS011;51065;48.884;12.598;2024-01-07T12:15:12;13.43;;;5.53;;
64653;SDS011;51065;48.884;12.598;2024-01-07T12:17:38;10.60;;;5.10;;
64653;SDS011;51065;48.884;12.598;2024-01-07T12:20:04;10.85;;;4.63;;
64653;SDS011;51065;48.884;12.598;2024-01-07T12:22:32;16.77;;;6.82;;
64653;SDS011;51065;48.884;12.598;2024-01-07T12:25:02;13.73;;;5.97;;
64653;SDS011;51065;48.884;12.598;2024-01-07T12:27:28;10.30;;;4.65;;
64653;SDS011;51065;48.884;12.598;2024-01-07T12:29:54;12.57;;;5.68;;
64653;SDS011;51065;48.884;12.598;2024-01-07T12:32:26;11.55;;;5.20;;
64653;SDS011;51065;48.884;12.598;2024-01-07T12:34:52;12.10;;;4.70;;
64653;SDS011;51065;48.884;12.598;2024-01-07T12:37:18;11.77;;;4.45;;
64653;SDS011;51065;48.884;12.598;2024-01-07T12:39:44;13.60;;;6.13;;
64653;SDS011;51065;48.884;12.598;2024-01-07T12:42:09;12.85;;;4.72;;
64653;SDS011;51065;48.884;12.598;2024-01-07T12:44:38;9.65;;;5.13;;
64653;SDS011;51065;48.884;12.598;2024-01-07T12:47:03;12.45;;;5.30;;
64653;SDS011;51065;48.884;12.598;2024-01-07T12:49:29;11.93;;;4.93;;
64653;SDS011;51065;48.884;12.598;2024-01-07T12:51:54;11.90;;;4.68;;
64653;SDS011;51065;48.884;12.598;2024-01-07T12:54:20;12.68;;;4.85;;
64653;SDS011;51065;48.884;12.598;2024-01-07T12:56:48;12.95;;;4.90;;
64653;SDS011;51065;48.884;12.598;2024-01-07T12:59:13;14.55;;;5.57;;
64653;SDS011;51065;48.884;12.598;2024-01-07T13:01:39;11.35;;;5.88;;
64653;SDS011;51065;48.884;12.598;2024-01-07T13:04:05;13.77;;;5.90;;
64653;SDS011;51065;48.884;12.598;2024-01-07T13:06:30;9.27;;;4.30;;
64653;SDS011;51065;48.884;12.598;2024-01-07T13:08:56;10.57;;;4.95;;
64653;SDS011;51065;48.884;12.598;2024-01-07T13:11:22;13.13;;;5.50;;
64653;SDS011;51065;48.884;12.598;2024-01-07T13:13:47;14.20;;;6.25;;
64653;SDS011;51065;48.884;12.598;2024-01-07T13:16:13;13.50;;;5.35;;
64653;SDS011;51065;48.884;12.598;2024-01-07T13:18:38;20.48;;;6.90;;
64653;SDS011;51065;48.884;12.598;2024-01-07T13:21:04;12.27;;;5.38;;
64653;SDS011;51065;48.884;12.598;2024-01-07T13:23:31;16.60;;;6.75;;
64653;SDS011;51065;48.884;12.598;2024-01-07T13:25:57;10.52;;;5.00;;
64653;SDS011;51065;48.884;12.598;2024-01-07T13:28:23;12.23;;;4.68;;
64653;SDS011;51065;48.884;12.598;2024-01-07T13:30:49;10.77;;;4.50;;
64653;SDS011;51065;48.884;12.598;2024-01-07T13:33:14;12.15;;;4.88;;
64653;SDS011;51065;48.884;12.598;2024-01-07T13:35:42;12.60;;;5.32;;
64653;SDS011;51065;48.884;12.598;2024-01-07T13:38:08;12.32;;;4.95;;
64653;SDS011;51065;48.884;12.598;2024-01-07T13:40:34;14.25;;;4.68;;
64653;SDS011;51065;48.884;12.598;2024-01-07T13:43:00;13.15;;;4.72;;
64653;SDS011;51065;48.884;12.598;2024-01-07T13:45:27;10.02;;;4.82;;
64653;SDS011;51065;48.884;12.598;2024-01-07T13:47:52;10.75;;;4.50;;
64653;SDS011;51065;48.884;12.598;2024-01-07T13:50:18;13.43;;;5.65;;
64653;SDS011;51065;48.884;12.598;2024-01-07T13:52:43;11.20;;;4.93;;
64653;SDS011;51065;48.884;12.598;2024-01-07T13:55:09;12.95;;;5.30;;
64653;SDS011;51065;48.884;12.598;2024-01-07T13:57:35;9.80;;;5.07;;
64653;SDS011;51065;48.884;12.598;2024-01-07T14:00:01;10.20;;;4.25;;
64653;SDS011;51065;48.884;12.598;2024-01-07T14:02:33;13.50;;;6.05;;
64653;SDS011;51065;48.884;12.598;2024-01-07T14:04:58;10.50;;;4.65;;
64653;SDS011;51065;48.884;12.598;2024-01-07T14:07:24;12.05;;;5.13;;
64653;SDS011;51065;48.884;12.598;2024-01-07T14:09:51;10.95;;;4.25;;
64653;SDS011;51065;48.884;12.598;2024-01-07T14:12:17;12.18;;;5.07;;
64653;SDS011;51065;48.884;12.598;2024-01-07T14:14:42;12.90;;;5.47;;
64653;SDS011;51065;48.884;12.598;2024-01-07T14:17:08;14.05;;;5.65;;
64653;SDS011;51065;48.884;12.598;2024-01-07T14:19:34;13.75;;;5.57;;
64653;SDS011;51065;48.884;12.598;2024-01-07T14:21:59;10.32;;;4.70;;
64653;SDS011;51065;48.884;12.598;2024-01-07T14:24:25;10.82;;;4.85;;
64653;SDS011;51065;48.884;12.598;2024-01-07T14:26:51;11.57;;;4.00;;
64653;SDS011;51065;48.884;12.598;2024-01-07T14:29:17;11.50;;;5.28;;
64653;SDS011;51065;48.884;12.598;2024-01-07T14:31:42;12.20;;;4.88;;